Die Mitgliedschaft ist kostenlos – mit vollem Zugang zu allen Funktionen; Upgrades bieten Extras wie Bannerwerbung und Newsletter-Platzierungen. ✅ Signatur-Links sind jetzt für alle frei. Teilen Sie Ihre eigenen Gedanken und Erfahrungen; bei Verstößen können Konten geschlossen werden.

Willkommen!

Durch Ihre Registrierung bei uns können Sie mit anderen Mitgliedern unserer Community diskutieren, teilen und private Nachrichten austauschen.

Jetzt anmelden!

Live-Überblick: .DE-Domainauktionen

Möchten Sie eine Premium-Domain .DE kaufen? Unser Live-Auktionsfeed für Domains bietet Ihnen eine einfache Möglichkeit, die perfekte Webadresse für Ihr Unternehmen zu sichern. Mit einer großen Auswahl an Angeboten finden Sie Domains mit SEO-Potenzial, Markenfähigkeit und hoher Wiedererkennbarkeit.

Seien Sie dabei und bieten Sie auf Ihre Wunsch-Domain .DE! Consultdomain.de-Mitglieder können unsere Plattform nutzen, um wertvolle Domains zu finden und in Echtzeit zu konkurrieren. Verpassen Sie nicht diese spannende Gelegenheit, Ihre Online-Präsenz zu stärken.

Live 14.253 auctions 0 selected
Sammlungen
Domain DL Current bid Gebote Ends in Plattform REC RE WFAY DW
iamian.de 6 0,00€ 0 Sep. 11, 19:00 10 .app .co.uk .com 2
ichkaufedeinhandy.de 17 0,00€ 0 Sep. 11, 19:00 2 .com .de 0
icomit.de 6 0,00€ 0 Sep. 11, 19:00 4 .com .de .nu 2
idbuzztreffen.de 13 0,00€ 0 Sep. 11, 19:00 3 .com .de .org 4
idtuningtreffen.de 15 0,00€ 0 Sep. 11, 19:00 2 .com .de 4
ilkapetermann.de 13 0,00€ 0 Sep. 11, 19:00 0 3
ilkawolf.de 8 0,00€ 0 Sep. 11, 19:00 0 2
imkergemeinschaft.de 17 0,00€ 0 Sep. 11, 19:00 0 3
immobilienmaklertraunreut.de 25 0,00€ 0 Sep. 11, 19:00 0 0
immobrochure.de 12 0,00€ 0 Sep. 11, 19:00 0 0
immocomplex.de 11 0,00€ 0 Sep. 11, 19:00 0 0
immoescape.de 10 0,00€ 0 Sep. 11, 19:00 0 0
immoheros.de 9 0,00€ 0 Sep. 11, 19:00 0 0
immopalace.de 10 0,00€ 0 Sep. 11, 19:00 1 .fr 0
immoroll.de 8 0,00€ 0 Sep. 11, 19:00 0 0
immostolz.de 9 0,00€ 0 Sep. 11, 19:00 0 0
immotogether.de 12 0,00€ 0 Sep. 11, 19:00 2 .fr .online 0
immotraffic.de 11 0,00€ 0 Sep. 11, 19:00 0 0
inboxagency.de 11 0,00€ 0 Sep. 11, 19:00 7 .co.uk .com .info 3
incredibleinc.de 13 0,00€ 0 Sep. 11, 19:00 6 .co.uk .com .de 2
indentopro.de 10 0,00€ 0 Sep. 11, 19:00 3 .com .de .net 3
inkassoprogramm.de 15 0,00€ 0 Sep. 11, 19:00 0 0
inkboost.de 8 0,00€ 0 Sep. 11, 19:00 6 .com .de .net 2
inkedbeauty.de 11 0,00€ 0 Sep. 11, 19:00 4 .co.uk .com .net 2
intimesolving.de 13 0,00€ 0 Sep. 11, 19:00 1 .com 2
investmentcar.de 13 0,00€ 0 Sep. 11, 19:00 5 .com .de .nu 2
investyfy.de 9 0,00€ 0 Sep. 11, 19:00 2 .com .de 3
iozu.de 4 0,00€ 0 Sep. 11, 19:00 3 .com .de .xyz 0
ireminis.de 8 0,00€ 0 Sep. 11, 19:00 2 .com .de 2
isamedic.de 8 0,00€ 0 Sep. 11, 19:00 1 .com 2
isdom.de 5 0,00€ 0 Sep. 11, 19:00 5 .co.uk .com .de 2
isotool.de 7 0,00€ 0 Sep. 11, 19:00 4 .com .de .se 2
italiayachtsinternational.de 25 0,00€ 0 Sep. 11, 19:00 4 .com .de .fr 3
izhd.de 4 0,00€ 0 Sep. 11, 19:00 4 .com .net .top 0
izigroup.de 8 0,00€ 0 Sep. 11, 19:00 5 .com .de .fr 0
jasminien.de 9 0,00€ 0 Sep. 11, 19:00 0 2
jaysel.de 6 0,00€ 0 Sep. 11, 19:00 4 .co.uk .com .de 2
jclservices.de 11 0,00€ 0 Sep. 11, 19:00 8 .biz .co.uk .com 2
jeanmichelberlin.de 16 0,00€ 0 Sep. 11, 19:00 0 3
jeweljk.de 7 0,00€ 0 Sep. 11, 19:00 3 .com .de .store 0
jewelo.de 6 0,00€ 0 Sep. 11, 19:00 12 .app .click .co.uk 2
joachimschwede.de 14 0,00€ 0 Sep. 11, 19:00 0 3
jobsitecx.de 9 0,00€ 0 Sep. 11, 19:00 2 .com .de 0
jobsveynex.de 10 0,00€ 0 Sep. 11, 19:00 2 .com .de 4
joinrealworld.de 13 0,00€ 0 Sep. 11, 19:00 8 .app .co.uk .com 3
joshido.de 7 0,00€ 0 Sep. 11, 19:00 2 .com .de 2
jouise.de 6 0,00€ 0 Sep. 11, 19:00 2 .com .de 0
journese.de 8 0,00€ 0 Sep. 11, 19:00 8 .asia .biz .co.uk 2
jsler.de 5 0,00€ 0 Sep. 11, 19:00 0 2
junier.de 6 0,00€ 0 Sep. 11, 19:00 4 .com .de .info 2
justlasers.de 10 0,00€ 0 Sep. 11, 19:00 2 .com .de 2
juwebau.de 7 0,00€ 0 Sep. 11, 19:00 0 0
jwy.de 3 50,00€ 1 Sep. 11, 19:00 10 .co.uk .com .fr 0
kapey.de 5 0,00€ 0 Sep. 11, 19:00 1 .com 0
kapplersedlak.de 13 0,00€ 0 Sep. 11, 19:00 0 4
karlheinzremscheidt.de 19 0,00€ 0 Sep. 11, 19:00 0 4
kaselectronic.de 13 0,00€ 0 Sep. 11, 19:00 2 .com .store 2
kastronics.de 10 0,00€ 0 Sep. 11, 19:00 1 .com 3
katerheld.de 9 0,00€ 0 Sep. 11, 19:00 1 .com 3
katewood.de 8 0,00€ 0 Sep. 11, 19:00 5 .boston .co.uk .com 2
katrinnagel.de 11 0,00€ 0 Sep. 11, 19:00 0 3
keckinamerika.de 13 0,00€ 0 Sep. 11, 19:00 0 3
keklo.de 5 0,00€ 0 Sep. 11, 19:00 2 .com .shop 0
keltenblitz.de 11 0,00€ 0 Sep. 11, 19:00 0 3
kemaru.de 6 0,00€ 0 Sep. 11, 19:00 5 .africa .com .fr 2
kennlinienmessgeraet.de 20 0,00€ 0 Sep. 11, 19:00 0 0
kentaure.de 8 0,00€ 0 Sep. 11, 19:00 1 .com 2
keyiwe.de 6 0,00€ 0 Sep. 11, 19:00 3 .com .de .net 0
keywordanalyse.de 14 0,00€ 0 Sep. 11, 19:00 3 .com .de .net 2
kimonomanufaktur.de 16 0,00€ 0 Sep. 11, 19:00 0 4
kinderliederblog.de 16 0,00€ 0 Sep. 11, 19:00 0 4
kindie.de 6 0,00€ 0 Sep. 11, 19:00 14 .app .band .biz 2
kineticit.de 9 0,00€ 0 Sep. 11, 19:00 7 .co.uk .com .net 2
kinkinprint.de 11 0,00€ 0 Sep. 11, 19:00 2 .com .de 3
kinofuchs.de 9 0,00€ 0 Sep. 11, 19:00 0 2
kintsugihamburg.de 15 0,00€ 0 Sep. 11, 19:00 4 .com .de .online 0
kleintierkolonie.de 16 0,00€ 0 Sep. 11, 19:00 0 4
klenzmetho.de 10 0,00€ 0 Sep. 11, 19:00 0 0
klimadiskussion.de 15 0,00€ 0 Sep. 11, 19:00 0 0
klimafuchs.de 10 0,00€ 0 Sep. 11, 19:00 4 .com .de .net 3
knowyourfuture.de 14 0,00€ 0 Sep. 11, 19:00 7 .co.uk .com .de 3
kochcloud.de 9 0,00€ 0 Sep. 11, 19:00 5 .com .de .info 2
kommunikationsdoktor.de 20 0,00€ 0 Sep. 11, 19:00 5 .com .de .info 0
komunich.de 8 0,00€ 0 Sep. 11, 19:00 0 2
konferenzwebsite.de 16 0,00€ 0 Sep. 11, 19:00 0 5
kongresswebsite.de 15 0,00€ 0 Sep. 11, 19:00 0 4
konsulaturuguay.de 15 0,00€ 0 Sep. 11, 19:00 0 4
kopffreiwandern.de 15 0,00€ 0 Sep. 11, 19:00 0 0
kosmetikcrisante.de 16 0,00€ 0 Sep. 11, 19:00 0 5
kostenlosfuchs.de 14 0,00€ 0 Sep. 11, 19:00 0 4
krankheitsdolmetscher.de 21 0,00€ 0 Sep. 11, 19:00 0 5
kratzmeir.de 9 0,00€ 0 Sep. 11, 19:00 1 .com 0
krbckp.de 6 0,00€ 0 Sep. 11, 19:00 0 0
kreditefuchs.de 12 0,00€ 0 Sep. 11, 19:00 0 0
kslaserdesign.de 13 0,00€ 0 Sep. 11, 19:00 0 3
ktpure.de 6 0,00€ 0 Sep. 11, 19:00 3 .com .de .shop 2
kuemmern.de 8 0,00€ 0 Sep. 11, 19:00 3 .com .net .org 3
kunstimwinkel.de 13 0,00€ 0 Sep. 11, 19:00 0 3
kunstsommerwochen.de 17 0,00€ 0 Sep. 11, 19:00 0 5
kunststofformenbau.de 18 0,00€ 0 Sep. 11, 19:00 3 .berlin .com .de 0
8.201–8.300 of 14.253
Zurück
Oben